nws-alerts: Checking more than four warning/county codes can delay the loading of your pages. You should use a cron job to get the data.
EllijayWeather Station Historical Data
Daily Summary for December 24, 2018 Units:  English    Metric   Both
Daily Weekly Monthly Yearly Custom
  High: Low: Average:
Temperature: 47.8 °F 27.9 °F 36.4 °F
Dew Point: 37.4 °F 22.8 °F 29.4 °F
Humidity: 97% 38% 79%
Wind Speed: 6.9mph 0mph 0.6mph
Wind Gust: 11mph - -
Wind- - WSW
Pressure: 30.41 in 30.29 in -
Precipitation: 0 in    
Historical Graphs
 
 
Tabular Data for December 24, 2018
Time Temperature Dew Point Pressure Wind Wind Speed Wind Gust Humidity Rainfall Rate (Hourly) solar
00:04 39 °F 37.4 °F 30.31 in Calm     94% 0.01 in meteobridge W/m2
00:09 38.8 °F 37 °F 30.30 in Calm     93% 0.01 in meteobridge W/m2
00:14 38.7 °F 36.9 °F 30.30 in Calm     93% 0.01 in meteobridge W/m2
00:19 38.5 °F 36.7 °F 30.30 in Calm     93% 0.01 in meteobridge W/m2
00:24 38.1 °F 36.3 °F 30.30 in Calm   2 mph 93% 0 in meteobridge W/m2
00:29 37.9 °F 36.3 °F 30.30 in Calm     94% 0 in meteobridge W/m2
00:34 37.8 °F 36.1 °F 30.30 in Calm     94% 0 in meteobridge W/m2
00:39 37.6 °F 35.8 °F 30.30 in Calm   2 mph 93% 0 in meteobridge W/m2
00:44 37.2 °F 35.6 °F 30.30 in Calm   4 mph 94% 0 in meteobridge W/m2
00:49 37.2 °F 35.1 °F 30.30 in Calm   2 mph 92% 0 in meteobridge W/m2
00:54 37.2 °F 35.1 °F 30.30 in NNW 2.9 mph 3 mph 92% 0 in meteobridge W/m2
00:59 37.2 °F 35.1 °F 30.30 in Calm     92% 0 in meteobridge W/m2
01:04 37.2 °F 35.1 °F 30.30 in Calm     92% 0 in meteobridge W/m2
01:09 37 °F 34.9 °F 30.29 in Calm     92% 0 in meteobridge W/m2
01:14 36.9 °F 35.1 °F 30.30 in Calm     93% 0 in meteobridge W/m2
01:19 36.5 °F 34.9 °F 30.30 in Calm     94% 0 in meteobridge W/m2
01:24 36.1 °F 34.5 °F 30.30 in Calm     94% 0 in meteobridge W/m2
01:29 35.8 °F 34.2 °F 30.30 in Calm     94% 0 in meteobridge W/m2
01:34 35.6 °F 34 °F 30.30 in Calm     94% 0 in meteobridge W/m2
01:39 35.2 °F 33.6 °F 30.30 in Calm     94% 0 in meteobridge W/m2
01:44 35.1 °F 33.8 °F 30.30 in Calm     95% 0 in meteobridge W/m2
01:49 34.9 °F 33.6 °F 30.30 in Calm     95% 0 in meteobridge W/m2
01:54 34.9 °F 33.6 °F 30.31 in Calm     95% 0 in meteobridge W/m2
01:58 34.5 °F 33.3 °F 30.31 in Calm     95% 0 in meteobridge W/m2
02:04 34.3 °F 33.1 °F 30.32 in Calm     95% 0 in meteobridge W/m2
02:09 34.2 °F 32.9 °F 30.32 in Calm     95% 0 in meteobridge W/m2
02:14 34 °F 32.7 °F 30.32 in Calm     95% 0 in meteobridge W/m2
02:19 33.8 °F 32.5 °F 30.32 in Calm     95% 0 in meteobridge W/m2
02:24 33.4 °F 32.2 °F 30.32 in Calm     95% 0 in meteobridge W/m2
02:29 33.4 °F 32.4 °F 30.32 in Calm     96% 0 in meteobridge W/m2
02:34 33.3 °F 32 °F 30.32 in Calm     95% 0 in meteobridge W/m2
02:39 33.3 °F 32 °F 30.33 in Calm     95% 0 in meteobridge W/m2
02:44 33.1 °F 32 °F 30.32 in Calm     96% 0 in meteobridge W/m2
02:49 32.9 °F 31.8 °F 30.32 in Calm     96% 0 in meteobridge W/m2
02:54 32.7 °F 31.6 °F 30.32 in Calm     96% 0 in meteobridge W/m2
02:59 32.5 °F 31.5 °F 30.33 in Calm   2 mph 96% 0 in meteobridge W/m2
03:04 32.5 °F 31.5 °F 30.33 in Calm     96% 0 in meteobridge W/m2
03:09 32.5 °F 31.5 °F 30.33 in Calm   1 mph 96% 0 in meteobridge W/m2
03:14 32.4 °F 31.3 °F 30.33 in Calm     96% 0 in meteobridge W/m2
03:19 32.4 °F 31.3 °F 30.33 in Calm     96% 0 in meteobridge W/m2
03:24 32.4 °F 31.3 °F 30.33 in Calm     96% 0 in meteobridge W/m2
03:29 32 °F 30.9 °F 30.33 in Calm     96% 0 in meteobridge W/m2
03:34 31.8 °F 30.7 °F 30.32 in Calm     96% 0 in meteobridge W/m2
03:39 31.8 °F 30.7 °F 30.32 in Calm     96% 0 in meteobridge W/m2
03:44 31.6 °F 30.6 °F 30.33 in Calm     96% 0 in meteobridge W/m2
03:49 31.6 °F 30.6 °F 30.34 in Calm     96% 0 in meteobridge W/m2
03:54 31.5 °F 30.4 °F 30.34 in Calm     96% 0 in meteobridge W/m2
03:59 31.5 °F 30.4 °F 30.34 in Calm     96% 0 in meteobridge W/m2
04:04 31.3 °F 30.2 °F 30.34 in Calm     96% 0 in meteobridge W/m2
04:09 31.1 °F 30 °F 30.34 in Calm     96% 0 in meteobridge W/m2
04:14 30.9 °F 29.8 °F 30.34 in Calm     96% 0 in meteobridge W/m2
04:19 30.9 °F 29.8 °F 30.34 in Calm     96% 0 in meteobridge W/m2
04:24 30.9 °F 29.8 °F 30.34 in Calm     96% 0 in meteobridge W/m2
04:29 30.9 °F 30.2 °F 30.35 in Calm     97% 0 in meteobridge W/m2
04:34 30.9 °F 30.2 °F 30.34 in Calm     97% 0 in meteobridge W/m2
04:39 31.3 °F 30.6 °F 30.34 in Calm     97% 0 in meteobridge W/m2
04:44 31.5 °F 30.7 °F 30.34 in Calm   3 mph 97% 0 in meteobridge W/m2
04:49 31.6 °F 30.9 °F 30.34 in Calm     97% 0 in meteobridge W/m2
04:54 31.8 °F 30.7 °F 30.34 in Calm     96% 0 in meteobridge W/m2
04:59 32 °F 30.7 °F 30.34 in Calm   1 mph 95% 0 in meteobridge W/m2
05:04 32.2 °F 30.9 °F 30.34 in Calm     95% 0 in meteobridge W/m2
05:09 32.2 °F 30.9 °F 30.35 in Calm     95% 0 in meteobridge W/m2
05:14 32 °F 30.7 °F 30.35 in ENE 0.9 mph 1 mph 95% 0 in meteobridge W/m2
05:19 32.2 °F 30.6 °F 30.35 in NW 0.9 mph 4 mph 94% 0 in meteobridge W/m2
05:24 32.4 °F 30.7 °F 30.35 in Calm   2 mph 94% 0 in meteobridge W/m2
05:29 32.4 °F 30.6 °F 30.35 in Calm   3 mph 93% 0 in meteobridge W/m2
05:34 32.5 °F 30.9 °F 30.35 in Calm     94% 0 in meteobridge W/m2
05:39 32.5 °F 30.7 °F 30.35 in Calm   4 mph 93% 0 in meteobridge W/m2
05:44 32.7 °F 30.7 °F 30.34 in WNW 0.9 mph 11 mph 92% 0 in meteobridge W/m2
05:49 33.1 °F 31.1 °F 30.34 in Calm   4 mph 92% 0 in meteobridge W/m2
05:54 33.1 °F 31.1 °F 30.34 in Calm   3 mph 92% 0 in meteobridge W/m2
05:59 33.1 °F 30.7 °F 30.34 in Calm   3 mph 91% 0 in meteobridge W/m2
06:04 33.3 °F 30.9 °F 30.34 in Calm   2 mph 91% 0 in meteobridge W/m2
06:09 33.3 °F 30.9 °F 30.34 in NW 2 mph 2 mph 91% 0 in meteobridge W/m2
06:14 33.3 °F 31.1 °F 30.35 in North 2.9 mph 11 mph 92% 0 in meteobridge W/m2
06:19 33.3 °F 30.9 °F 30.35 in Calm   4 mph 91% 0 in meteobridge W/m2
06:24 33.4 °F 30.6 °F 30.36 in NE 2 mph 5 mph 89% 0 in meteobridge W/m2
06:29 33.4 °F 30.7 °F 30.36 in NW 0.9 mph 7 mph 90% 0 in meteobridge W/m2
06:34 33.6 °F 30.7 °F 30.35 in WNW 2.9 mph 4 mph 89% 0 in meteobridge W/m2
06:39 33.6 °F 30.7 °F 30.36 in NNE 0.9 mph 7 mph 89% 0 in meteobridge W/m2
06:44 33.6 °F 30.9 °F 30.36 in Calm   7 mph 90% 0 in meteobridge W/m2
06:49 33.8 °F 30.9 °F 30.36 in Calm   10 mph 89% 0 in meteobridge W/m2
06:54 33.8 °F 30.9 °F 30.36 in ENE 2.9 mph 5 mph 89% 0 in meteobridge W/m2
06:59 33.6 °F 30.7 °F 30.36 in West 2.9 mph 4 mph 89% 0 in meteobridge W/m2
07:04 33.8 °F 30.9 °F 30.37 in NNW 2 mph 4 mph 89% 0 in meteobridge W/m2
07:09 33.8 °F 30.9 °F 30.36 in Calm   6 mph 89% 0 in meteobridge W/m2
07:14 34 °F 31.3 °F 30.36 in ENE 2.9 mph 5 mph 90% 0 in meteobridge W/m2
07:19 33.8 °F 30.9 °F 30.35 in Calm   2 mph 89% 0 in meteobridge W/m2
07:24 33.6 °F 30.7 °F 30.36 in Calm   3 mph 89% 0 in meteobridge W/m2
07:29 33.6 °F 30.9 °F 30.35 in Calm   5 mph 90% 0 in meteobridge W/m2
07:34 33.6 °F 30.9 °F 30.36 in Calm   5 mph 90% 0 in meteobridge W/m2
07:39 33.6 °F 30.7 °F 30.36 in WNW 0.9 mph 4 mph 89% 0 in meteobridge W/m2
07:44 33.6 °F 30.7 °F 30.37 in Calm   5 mph 89% 0 in meteobridge W/m2
07:49 33.6 °F 30.7 °F 30.37 in NW 2 mph 8 mph 89% 0 in meteobridge W/m2
07:54 33.6 °F 30.4 °F 30.37 in NNE 4.9 mph 9 mph 88% 0 in meteobridge W/m2
07:59 33.6 °F 30.7 °F 30.37 in Calm   3 mph 89% 0 in meteobridge W/m2
08:04 33.6 °F 30.4 °F 30.37 in Calm   8 mph 88% 0 in meteobridge W/m2
08:09 33.6 °F 30.4 °F 30.37 in Calm   6 mph 88% 0 in meteobridge W/m2
08:14 33.6 °F 30.7 °F 30.38 in ENE 6.9 mph 7 mph 89% 0 in meteobridge W/m2
08:19 33.6 °F 30.4 °F 30.38 in NW 0.9 mph 4 mph 88% 0 in meteobridge W/m2
08:24 33.4 °F 29.7 °F 30.38 in Calm   6 mph 86% 0 in meteobridge W/m2
08:29 33.6 °F 30.4 °F 30.38 in NNW 4 mph 8 mph 88% 0 in meteobridge W/m2
08:34 33.4 °F 30 °F 30.38 in NNW 2 mph 8 mph 87% 0 in meteobridge W/m2
08:39 33.4 °F 30 °F 30.37 in NW 0.9 mph 10 mph 87% 0 in meteobridge W/m2
08:44 33.4 °F 30.2 °F 30.37 in WNW 2.9 mph 9 mph 88% 0 in meteobridge W/m2
08:49 33.4 °F 30.2 °F 30.37 in Calm   3 mph 88% 0 in meteobridge W/m2
08:54 33.4 °F 30.2 °F 30.37 in NNW 2 mph 6 mph 88% 0 in meteobridge W/m2
08:59 33.4 °F 30 °F 30.38 in NNW 6 mph 6 mph 87% 0 in meteobridge W/m2
09:04 33.6 °F 31.5 °F 30.38 in Calm   7 mph 92% 0 in meteobridge W/m2
09:09 33.6 °F 29.8 °F 30.38 in Calm   6 mph 86% 0 in meteobridge W/m2
09:14 34 °F 30.2 °F 30.38 in NNE 2.9 mph 6 mph 86% 0 in meteobridge W/m2
09:19 34.3 °F 30.4 °F 30.39 in NW 2.9 mph 6 mph 85% 0 in meteobridge W/m2
09:24 34.5 °F 30.6 °F 30.39 in Calm   5 mph 85% 0 in meteobridge W/m2
09:29 34.9 °F 30.6 °F 30.39 in Calm   7 mph 84% 0 in meteobridge W/m2
09:34 35.1 °F 30.4 °F 30.39 in Calm   6 mph 83% 0 in meteobridge W/m2
09:39 35.2 °F 30.9 °F 30.39 in NW 2.9 mph 5 mph 84% 0 in meteobridge W/m2
09:44 35.4 °F 30.7 °F 30.40 in Calm   4 mph 83% 0 in meteobridge W/m2
09:49 35.8 °F 30.7 °F 30.40 in NW 6.9 mph 9 mph 82% 0 in meteobridge W/m2
09:54 35.8 °F 30.6 °F 30.40 in North 6.9 mph 8 mph 81% 0 in meteobridge W/m2
09:59 35.8 °F 30.6 °F 30.40 in Calm   3 mph 81% 0 in meteobridge W/m2
10:04 36 °F 30.7 °F 30.41 in Calm   4 mph 81% 0 in meteobridge W/m2
10:09 36.1 °F 30.6 °F 30.41 in NNE 6 mph 9 mph 80% 0 in meteobridge W/m2
10:14 36.3 °F 30.4 °F 30.41 in NW 6.9 mph 7 mph 79% 0 in meteobridge W/m2
10:19 36.5 °F 30.4 °F 30.41 in Calm   4 mph 78% 0 in meteobridge W/m2
10:24 36.7 °F 30.2 °F 30.41 in Calm   4 mph 77% 0 in meteobridge W/m2
10:29 37 °F 30.2 °F 30.41 in WNW 4 mph 6 mph 76% 0 in meteobridge W/m2
10:34 37.2 °F 29.7 °F 30.41 in Calm   8 mph 74% 0 in meteobridge W/m2
10:39 37.6 °F 30.4 °F 30.41 in NNW 2.9 mph 4 mph 75% 0 in meteobridge W/m2
10:44 37.8 °F 30.2 °F 30.41 in NNW 6 mph 6 mph 74% 0 in meteobridge W/m2
10:49 37.9 °F 30 °F 30.41 in NW 4 mph 5 mph 73% 0 in meteobridge W/m2
10:54 38.1 °F 29.8 °F 30.40 in Calm   4 mph 72% 0 in meteobridge W/m2
10:59 38.5 °F 29.8 °F 30.40 in Calm   3 mph 71% 0 in meteobridge W/m2
11:04 38.7 °F 30.4 °F 30.40 in Calm     72% 0 in meteobridge W/m2
11:09 38.8 °F 29.8 °F 30.40 in Calm   5 mph 70% 0 in meteobridge W/m2
11:14 39 °F 29.7 °F 30.40 in West 2.9 mph 5 mph 69% 0 in meteobridge W/m2
11:19 39.4 °F 29.7 °F 30.40 in NE 0.9 mph 6 mph 68% 0 in meteobridge W/m2
11:24 39.6 °F 29.1 °F 30.40 in Calm   2 mph 66% 0 in meteobridge W/m2
11:29 39.9 °F 29.1 °F 30.39 in Calm   3 mph 65% 0 in meteobridge W/m2
11:34 40.3 °F 29.5 °F 30.39 in Calm   5 mph 65% 0 in meteobridge W/m2
11:39 40.5 °F 28.9 °F 30.39 in Calm   2 mph 63% 0 in meteobridge W/m2
11:44 40.6 °F 29.5 °F 30.39 in ENE 4 mph 4 mph 64% 0 in meteobridge W/m2
11:49 40.8 °F 29.7 °F 30.38 in WNW 2.9 mph 8 mph 64% 0 in meteobridge W/m2
11:54 40.8 °F 28.4 °F 30.38 in NNW 0.9 mph 10 mph 61% 0 in meteobridge W/m2
11:59 40.8 °F 28.8 °F 30.38 in West 2 mph 3 mph 62% 0 in meteobridge W/m2
12:04 41.2 °F 28.8 °F 30.38 in NNW 6.9 mph 7 mph 61% 0 in meteobridge W/m2
12:09 41.4 °F 28 °F 30.37 in Calm   3 mph 59% 0 in meteobridge W/m2
12:14 41.5 °F 28.8 °F 30.37 in NE 2 mph 3 mph 60% 0 in meteobridge W/m2
12:19 41.9 °F 28.6 °F 30.37 in WNW 2.9 mph 6 mph 59% 0 in meteobridge W/m2
12:24 42.1 °F 28.8 °F 30.37 in WNW 4 mph 5 mph 59% 0 in meteobridge W/m2
12:29 42.3 °F 27.7 °F 30.36 in West 4.9 mph 5 mph 56% 0 in meteobridge W/m2
12:34 42.4 °F 28.8 °F 30.36 in Calm   4 mph 58% 0 in meteobridge W/m2
12:39 42.6 °F 27.1 °F 30.35 in Calm   3 mph 54% 0 in meteobridge W/m2
12:44 43 °F 26.6 °F 30.35 in Calm   6 mph 52% 0 in meteobridge W/m2
12:49 43.2 °F 26.8 °F 30.35 in West 2 mph 4 mph 52% 0 in meteobridge W/m2
12:54 43.5 °F 26.1 °F 30.35 in West 6 mph 6 mph 50% 0 in meteobridge W/m2
12:59 43.5 °F 27.1 °F 30.35 in NW 0.9 mph 4 mph 52% 0 in meteobridge W/m2
13:04 43.9 °F 27.3 °F 30.34 in NNW 0.9 mph 4 mph 52% 0 in meteobridge W/m2
13:09 44.1 °F 28 °F 30.34 in Calm   5 mph 53% 0 in meteobridge W/m2
13:14 44.2 °F 29.5 °F 30.34 in Calm     56% 0 in meteobridge W/m2
13:19 44.4 °F 28.4 °F 30.34 in Calm   6 mph 53% 0 in meteobridge W/m2
13:24 44.6 °F 26.6 °F 30.33 in Calm   5 mph 49% 0 in meteobridge W/m2
13:29 44.8 °F 27.3 °F 30.33 in Calm   2 mph 50% 0 in meteobridge W/m2
13:34 45 °F 28.4 °F 30.33 in Calm     52% 0 in meteobridge W/m2
13:39 45.1 °F 27.7 °F 30.33 in Calm   3 mph 50% 0 in meteobridge W/m2
13:44 45.3 °F 27.3 °F 30.33 in Calm   5 mph 49% 0 in meteobridge W/m2
13:49 45.5 °F 27 °F 30.33 in Calm   1 mph 48% 0 in meteobridge W/m2
13:54 45.7 °F 26.6 °F 30.32 in Calm   3 mph 47% 0 in meteobridge W/m2
13:59 45.9 °F 27.3 °F 30.33 in Calm   1 mph 48% 0 in meteobridge W/m2
14:04 46 °F 27 °F 30.32 in Calm   2 mph 47% 0 in meteobridge W/m2
14:09 46 °F 25.9 °F 30.32 in Calm   2 mph 45% 0 in meteobridge W/m2
14:14 46.4 °F 26.8 °F 30.32 in Calm   2 mph 46% 0 in meteobridge W/m2
14:19 46.6 °F 26.4 °F 30.32 in Calm     45% 0 in meteobridge W/m2
14:24 46.9 °F 27.3 °F 30.32 in North 4 mph 6 mph 46% 0 in meteobridge W/m2
14:29 46.8 °F 24.8 °F 30.32 in Calm   6 mph 42% 0 in meteobridge W/m2
14:34 46.9 °F 26.8 °F 30.32 in Calm   1 mph 45% 0 in meteobridge W/m2
14:39 46.9 °F 24.4 °F 30.32 in Calm   2 mph 41% 0 in meteobridge W/m2
14:44 47.1 °F 25.2 °F 30.32 in Calm   3 mph 42% 0 in meteobridge W/m2
14:49 47.5 °F 25.5 °F 30.32 in Calm   4 mph 42% 0 in meteobridge W/m2
14:54 47.7 °F 24.4 °F 30.32 in Calm   1 mph 40% 0 in meteobridge W/m2
14:59 47.7 °F 26.2 °F 30.32 in Calm   6 mph 43% 0 in meteobridge W/m2
15:04 47.7 °F 28.4 °F 30.32 in Calm   1 mph 47% 0 in meteobridge W/m2
15:09 47.7 °F 23.9 °F 30.32 in NNW 0.9 mph 4 mph 39% 0 in meteobridge W/m2
15:14 47.7 °F 24.4 °F 30.32 in NW 0.9 mph 1 mph 40% 0 in meteobridge W/m2
15:19 47.8 °F 24.6 °F 30.32 in Calm   3 mph 40% 0 in meteobridge W/m2
15:24 47.8 °F 26.4 °F 30.32 in Calm     43% 0 in meteobridge W/m2
15:29 47.8 °F 25.3 °F 30.32 in Calm     41% 0 in meteobridge W/m2
15:34 47.8 °F 24.6 °F 30.32 in Calm   3 mph 40% 0 in meteobridge W/m2
15:39 47.8 °F 26.4 °F 30.32 in Calm   3 mph 43% 0 in meteobridge W/m2
15:44 47.8 °F 24.6 °F 30.32 in Calm     40% 0 in meteobridge W/m2
15:49 47.7 °F 26.2 °F 30.32 in Calm   2 mph 43% 0 in meteobridge W/m2
15:54 47.5 °F 25 °F 30.32 in WNW 4 mph 4 mph 41% 0 in meteobridge W/m2
15:59 47.5 °F 25 °F 30.32 in NE 0.9 mph 6 mph 41% 0 in meteobridge W/m2
16:04 47.5 °F 23.2 °F 30.33 in Calm   2 mph 38% 0 in meteobridge W/m2
16:09 47.1 °F 26.2 °F 30.33 in Calm     44% 0 in meteobridge W/m2
16:14 47.1 °F 22.8 °F 30.33 in Calm   4 mph 38% 0 in meteobridge W/m2
16:19 47.3 °F 24.3 °F 30.33 in Calm     40% 0 in meteobridge W/m2
16:24 47.1 °F 26.2 °F 30.32 in Calm   2 mph 44% 0 in meteobridge W/m2
16:29 46.9 °F 25 °F 30.32 in North 0.9 mph 4 mph 42% 0 in meteobridge W/m2
16:34 46.9 °F 28.2 °F 30.32 in Calm     48% 0 in meteobridge W/m2
16:39 46.6 °F 25.3 °F 30.32 in Calm   2 mph 43% 0 in meteobridge W/m2
16:44 46.4 °F 26.8 °F 30.32 in Calm     46% 0 in meteobridge W/m2
16:49 46 °F 28.9 °F 30.32 in Calm     51% 0 in meteobridge W/m2
16:54 45.3 °F 27.9 °F 30.32 in West 0.9 mph 3 mph 50% 0 in meteobridge W/m2
16:59 45.3 °F 28.2 °F 30.32 in Calm   1 mph 51% 0 in meteobridge W/m2
17:04 45 °F 28.4 °F 30.32 in Calm   2 mph 52% 0 in meteobridge W/m2
17:09 44.4 °F 31.5 °F 30.32 in Calm     60% 0 in meteobridge W/m2
17:14 44.1 °F 30.7 °F 30.31 in Calm     59% 0 in meteobridge W/m2
17:19 43.3 °F 27.9 °F 30.30 in Calm     54% 0 in meteobridge W/m2
17:24 43 °F 29.3 °F 30.30 in Calm     58% 0 in meteobridge W/m2
17:29 42.4 °F 30.4 °F 30.30 in Calm     62% 0 in meteobridge W/m2
17:34 41.9 °F 30.9 °F 30.30 in Calm     65% 0 in meteobridge W/m2
17:39 41.5 °F 29.1 °F 30.29 in Calm     61% 0 in meteobridge W/m2
17:44 41.2 °F 28.8 °F 30.29 in Calm     61% 0 in meteobridge W/m2
17:49 40.8 °F 30.4 °F 30.29 in Calm     66% 0 in meteobridge W/m2
17:54 40.5 °F 29.3 °F 30.30 in Calm     64% 0 in meteobridge W/m2
17:59 39.7 °F 29.3 °F 30.30 in Calm     66% 0 in meteobridge W/m2
18:04 39.4 °F 30 °F 30.30 in Calm     69% 0 in meteobridge W/m2
18:09 38.7 °F 29.7 °F 30.30 in Calm     70% 0 in meteobridge W/m2
18:14 37.9 °F 29.1 °F 30.30 in Calm     70% 0 in meteobridge W/m2
18:19 37.8 °F 29.5 °F 30.29 in Calm     72% 0 in meteobridge W/m2
18:24 37.4 °F 29.5 °F 30.29 in Calm     73% 0 in meteobridge W/m2
18:28 37 °F 29.5 °F 30.30 in Calm     74% 0 in meteobridge W/m2
18:34 36.7 °F 29.5 °F 30.30 in Calm     75% 0 in meteobridge W/m2
18:39 36.1 °F 28.9 °F 30.30 in Calm     75% 0 in meteobridge W/m2
18:44 35.8 °F 29.3 °F 30.30 in Calm     77% 0 in meteobridge W/m2
18:49 35.4 °F 29.5 °F 30.31 in Calm     79% 0 in meteobridge W/m2
18:54 35.2 °F 29.7 °F 30.31 in Calm     80% 0 in meteobridge W/m2
18:59 34.9 °F 29.3 °F 30.31 in Calm     80% 0 in meteobridge W/m2
19:04 34.5 °F 29.3 °F 30.32 in Calm     81% 0 in meteobridge W/m2
19:09 34.3 °F 29.7 °F 30.32 in Calm     83% 0 in meteobridge W/m2
19:14 34.2 °F 29.5 °F 30.32 in Calm     83% 0 in meteobridge W/m2
19:19 34 °F 30 °F 30.32 in Calm     85% 0 in meteobridge W/m2
19:24 33.8 °F 29.5 °F 30.32 in Calm     84% 0 in meteobridge W/m2
19:29 33.4 °F 29.5 °F 30.33 in Calm     85% 0 in meteobridge W/m2
19:34 33.3 °F 29.3 °F 30.33 in Calm     85% 0 in meteobridge W/m2
19:39 33.3 °F 29.3 °F 30.34 in Calm     85% 0 in meteobridge W/m2
19:44 33.1 °F 29.1 °F 30.34 in Calm     85% 0 in meteobridge W/m2
19:49 32.7 °F 28.9 °F 30.34 in Calm     86% 0 in meteobridge W/m2
19:54 32.5 °F 28.8 °F 30.34 in Calm     86% 0 in meteobridge W/m2
19:59 32.2 °F 28.4 °F 30.34 in Calm     86% 0 in meteobridge W/m2
20:04 31.8 °F 28.4 °F 30.34 in Calm     87% 0 in meteobridge W/m2
20:09 31.6 °F 28.2 °F 30.34 in Calm     87% 0 in meteobridge W/m2
20:14 31.5 °F 28 °F 30.34 in Calm     87% 0 in meteobridge W/m2
20:19 31.3 °F 28.2 °F 30.34 in Calm     88% 0 in meteobridge W/m2
20:24 30.9 °F 28 °F 30.34 in Calm     89% 0 in meteobridge W/m2
20:29 30.7 °F 27.9 °F 30.34 in Calm     89% 0 in meteobridge W/m2
20:34 30.7 °F 27.9 °F 30.35 in Calm     89% 0 in meteobridge W/m2
20:39 30.4 °F 27.9 °F 30.34 in Calm     90% 0 in meteobridge W/m2
20:44 30.2 °F 27.3 °F 30.33 in Calm     89% 0 in meteobridge W/m2
20:49 30 °F 27.5 °F 30.32 in Calm     90% 0 in meteobridge W/m2
20:53 29.8 °F 27.3 °F 30.32 in Calm     90% 0 in meteobridge W/m2
20:59 29.7 °F 27.3 °F 30.32 in Calm     91% 0 in meteobridge W/m2
21:04 29.7 °F 27.3 °F 30.32 in Calm     91% 0 in meteobridge W/m2
21:09 29.5 °F 27.1 °F 30.32 in Calm     91% 0 in meteobridge W/m2
21:14 29.5 °F 27.1 °F 30.32 in Calm     91% 0 in meteobridge W/m2
21:19 29.5 °F 27.1 °F 30.32 in Calm     91% 0 in meteobridge W/m2
21:24 29.5 °F 27.5 °F 30.32 in Calm     92% 0 in meteobridge W/m2
21:29 29.3 °F 27.3 °F 30.33 in Calm     92% 0 in meteobridge W/m2
21:34 29.3 °F 27.3 °F 30.33 in Calm     92% 0 in meteobridge W/m2
21:39 29.1 °F 27.1 °F 30.33 in Calm     92% 0 in meteobridge W/m2
21:44 29.1 °F 27.1 °F 30.34 in Calm     92% 0 in meteobridge W/m2
21:49 29.1 °F 27.1 °F 30.33 in Calm     92% 0 in meteobridge W/m2
21:54 28.9 °F 27 °F 30.33 in Calm     92% 0 in meteobridge W/m2
21:59 28.8 °F 26.8 °F 30.34 in Calm     92% 0 in meteobridge W/m2
22:04 28.8 °F 26.8 °F 30.33 in Calm     92% 0 in meteobridge W/m2
22:09 28.6 °F 26.6 °F 30.33 in Calm     92% 0 in meteobridge W/m2
22:14 28.6 °F 26.6 °F 30.33 in Calm     92% 0 in meteobridge W/m2
22:19 28.2 °F 26.2 °F 30.33 in Calm     92% 0 in meteobridge W/m2
22:24 28.2 °F 26.2 °F 30.33 in Calm     92% 0 in meteobridge W/m2
22:29 28.2 °F 26.4 °F 30.34 in Calm     93% 0 in meteobridge W/m2
22:34 28.2 °F 26.4 °F 30.34 in Calm     93% 0 in meteobridge W/m2
22:39 28.2 °F 26.4 °F 30.33 in Calm     93% 0 in meteobridge W/m2
22:44 28.2 °F 26.4 °F 30.33 in Calm     93% 0 in meteobridge W/m2
22:49 28.2 °F 26.4 °F 30.33 in Calm     93% 0 in meteobridge W/m2
22:54 28 °F 26.2 °F 30.33 in Calm     93% 0 in meteobridge W/m2
22:59 28 °F 26.2 °F 30.33 in Calm     93% 0 in meteobridge W/m2
23:04 28 °F 26.2 °F 30.34 in Calm     93% 0 in meteobridge W/m2
23:09 27.9 °F 26.1 °F 30.34 in Calm     93% 0 in meteobridge W/m2
23:14 28 °F 26.2 °F 30.34 in Calm     93% 0 in meteobridge W/m2
23:19 27.9 °F 26.1 °F 30.33 in Calm     93% 0 in meteobridge W/m2
23:24 27.9 °F 26.1 °F 30.33 in Calm     93% 0 in meteobridge W/m2
23:28 27.9 °F 26.1 °F 30.33 in Calm     93% 0 in meteobridge W/m2
23:34 27.9 °F 26.1 °F 30.33 in Calm     93% 0 in meteobridge W/m2
23:39 27.9 °F 26.1 °F 30.32 in Calm     93% 0 in meteobridge W/m2
23:44 27.9 °F 26.4 °F 30.33 in Calm     94% 0 in meteobridge W/m2
23:49 27.9 °F 26.4 °F 30.32 in Calm     94% 0 in meteobridge W/m2
23:54 27.9 °F 26.4 °F 30.32 in Calm     94% 0 in meteobridge W/m2
23:59 27.9 °F 26.4 °F 30.32 in Calm     94% 0 in meteobridge W/m2
EllijayWeather
Compliments of Weather Underground - 2.5 mb